Time;durP1;ratioP1;P1;durP2;ratioP2;P2;SDS_P1;SDS_P2;PMS_P1;PMS_P2;Temp;Humidity;BMP_temperature;BMP_pressure;BME280_temperature;BME280_humidity;BME280_pressure;Samples;Min_cycle;Max_cycle;Signal;HPM_P1;HPM_P2
2023/05/07 00:00:34;;;;;;;22.27;20.02;;;14.00;99.90;;;;;;6226367;22;20011;-93
2023/05/07 00:03:01;;;;;;;25.77;21.60;;;13.90;99.90;;;;;;6225472;22;20012;-92
2023/05/07 00:05:27;;;;;;;23.77;21.20;;;13.90;99.90;;;;;;6225792;22;20013;-92
2023/05/07 00:07:53;;;;;;;23.40;21.02;;;13.90;99.90;;;;;;6225909;22;20008;-92
2023/05/07 00:10:20;;;;;;;23.48;20.25;;;13.90;99.90;;;;;;6226061;22;20437;-94
2023/05/07 00:12:49;;;;;;;22.50;20.23;;;13.90;99.90;;;;;;6226334;22;20003;-91
2023/05/07 00:15:15;;;;;;;21.75;19.73;;;13.70;99.90;;;;;;6225741;22;20014;-92
2023/05/07 00:17:41;;;;;;;21.70;19.55;;;13.70;99.90;;;;;;6225794;22;20011;-93
2023/05/07 00:20:08;;;;;;;22.08;19.73;;;13.70;99.90;;;;;;6251161;22;20012;-92
2023/05/07 00:22:34;;;;;;;23.38;19.92;;;13.70;99.90;;;;;;6225533;22;20015;-91
2023/05/07 00:25:01;;;;;;;22.40;20.00;;;13.70;99.90;;;;;;6225961;22;20091;-92
2023/05/07 00:27:27;;;;;;;21.50;19.30;;;13.70;99.90;;;;;;6225761;22;20004;-92
2023/05/07 00:29:54;;;;;;;21.83;19.70;;;13.70;99.90;;;;;;6225981;22;20012;-90
2023/05/07 00:32:20;;;;;;;22.50;20.23;;;13.70;99.90;;;;;;6225676;22;20010;-94
2023/05/07 00:34:48;;;;;;;22.17;20.17;;;13.60;99.90;;;;;;6225765;22;20018;-94
2023/05/07 00:37:14;;;;;;;22.42;20.27;;;13.70;99.90;;;;;;6225395;22;20003;-92
2023/05/07 00:39:41;;;;;;;23.85;20.77;;;13.70;99.90;;;;;;6225587;22;20058;-92
2023/05/07 00:42:08;;;;;;;23.42;20.27;;;13.70;99.90;;;;;;6225209;22;20341;-92
2023/05/07 00:44:34;;;;;;;23.10;20.70;;;13.70;99.90;;;;;;6224769;22;20020;-93
2023/05/07 00:47:03;;;;;;;23.33;20.85;;;13.70;99.90;;;;;;6224808;22;20037;-93
2023/05/07 00:49:38;;;;;;;22.23;19.98;;;13.70;99.90;;;;;;6225585;22;20058;-92
2023/05/07 00:52:07;;;;;;;22.60;20.30;;;13.70;99.90;;;;;;6225612;22;20007;-94
2023/05/07 00:54:34;;;;;;;22.13;19.83;;;13.50;99.90;;;;;;6225419;22;20003;-92
2023/05/07 00:57:03;;;;;;;23.13;20.73;;;13.40;99.90;;;;;;6225084;22;20094;-90
2023/05/07 00:59:32;;;;;;;23.17;20.80;;;13.20;99.90;;;;;;6250856;22;20056;-92
2023/05/07 01:01:59;;;;;;;22.85;20.42;;;13.00;99.90;;;;;;6251158;22;20008;-94
2023/05/07 01:04:26;;;;;;;22.35;20.00;;;12.90;99.90;;;;;;6225307;22;20016;-93
2023/05/07 01:06:56;;;;;;;21.88;19.67;;;12.90;99.90;;;;;;6225229;22;20011;-93
2023/05/07 01:09:24;;;;;;;21.85;19.58;;;12.80;99.90;;;;;;6225419;22;19999;-93
2023/05/07 01:11:53;;;;;;;23.08;19.83;;;12.70;99.90;;;;;;6225693;22;20084;-91
2023/05/07 01:14:20;;;;;;;21.75;19.65;;;12.60;99.90;;;;;;6225479;22;20014;-92
2023/05/07 01:16:48;;;;;;;21.95;19.80;;;12.50;99.90;;;;;;6227527;22;20004;-92
2023/05/07 01:19:18;;;;;;;22.52;20.08;;;12.40;99.90;;;;;;6227739;22;20058;-92
2023/05/07 01:21:49;;;;;;;20.70;18.67;;;12.40;99.90;;;;;;6227800;22;20058;-93
2023/05/07 01:24:18;;;;;;;21.08;18.92;;;12.30;99.90;;;;;;6252798;22;20057;-92
2023/05/07 01:26:45;;;;;;;21.98;19.67;;;12.30;99.90;;;;;;6227367;22;20007;-92
2023/05/07 01:29:14;;;;;;;21.25;18.70;;;12.30;99.90;;;;;;6228207;22;20085;-93
2023/05/07 01:31:43;;;;;;;24.98;19.55;;;12.20;99.90;;;;;;6227561;22;20311;-96
2023/05/07 01:34:13;;;;;;;22.13;19.15;;;12.10;99.90;;;;;;6227426;22;20011;-93
2023/05/07 01:36:43;;;;;;;22.05;19.23;;;12.00;99.90;;;;;;6226918;22;20015;-92
2023/05/07 01:39:10;;;;;;;24.83;19.40;;;12.10;99.90;;;;;;6227114;22;20038;-91
2023/05/07 01:41:37;;;;;;;22.33;19.45;;;12.00;99.90;;;;;;6227000;22;20086;-92
2023/05/07 01:44:05;;;;;;;23.17;18.60;;;12.00;99.90;;;;;;6227463;22;20057;-92
2023/05/07 01:46:32;;;;;;;21.65;18.60;;;12.00;99.90;;;;;;6227323;22;20030;-92
2023/05/07 01:48:59;;;;;;;20.40;18.30;;;12.00;99.90;;;;;;6226928;22;20016;-91
2023/05/07 01:51:26;;;;;;;25.10;19.35;;;12.00;99.90;;;;;;6226925;22;20015;-92
2023/05/07 01:53:53;;;;;;;21.48;18.92;;;12.00;99.90;;;;;;6226195;22;20064;-93
2023/05/07 01:56:21;;;;;;;22.60;19.20;;;11.90;99.90;;;;;;6227679;22;20383;-93
2023/05/07 01:58:49;;;;;;;28.95;19.25;;;11.90;99.90;;;;;;6227109;22;20011;-92
2023/05/07 02:01:15;;;;;;;21.35;18.90;;;11.90;99.90;;;;;;6252708;22;20000;-94
2023/05/07 02:03:42;;;;;;;25.52;19.05;;;12.00;99.90;;;;;;6227796;22;20016;-95
2023/05/07 02:06:16;;;;;;;24.20;19.05;;;11.90;99.90;;;;;;6228753;22;20334;-94
2023/05/07 02:08:43;;;;;;;24.05;18.80;;;12.00;99.90;;;;;;6252119;22;20018;-93
2023/05/07 02:11:11;;;;;;;22.80;19.17;;;12.00;99.90;;;;;;6227336;22;20000;-94
2023/05/07 02:13:38;;;;;;;25.02;19.05;;;12.10;99.90;;;;;;6227012;22;20007;-91
2023/05/07 02:16:05;;;;;;;27.08;18.70;;;12.10;99.90;;;;;;6227088;22;20015;-92
2023/05/07 02:18:32;;;;;;;22.20;17.92;;;12.10;99.90;;;;;;6226835;22;20019;-93
2023/05/07 02:20:58;;;;;;;25.15;19.27;;;12.10;99.90;;;;;;6227633;22;20451;-90
2023/05/07 02:23:25;;;;;;;23.73;18.92;;;12.00;99.90;;;;;;6252040;22;20019;-93
2023/05/07 02:25:51;;;;;;;23.50;19.77;;;12.00;99.90;;;;;;6226921;22;20010;-92
2023/05/07 02:28:18;;;;;;;27.23;18.00;;;11.90;99.90;;;;;;6252124;22;20008;-92
2023/05/07 02:31:04;;;;;;;22.55;19.50;;;11.90;99.90;;;;;;6231062;22;20035;-92
2023/05/07 02:33:33;;;;;;;24.25;19.27;;;11.90;99.90;;;;;;6226792;22;20018;-94
2023/05/07 02:36:09;;;;;;;26.98;19.80;;;11.90;99.90;;;;;;6226978;22;20000;-91
2023/05/07 02:38:56;;;;;;;22.52;18.38;;;11.70;99.90;;;;;;6254821;22;20060;-92
2023/05/07 02:41:22;;;;;;;23.13;19.50;;;11.70;99.90;;;;;;6226524;22;20004;-91
2023/05/07 02:43:48;;;;;;;25.92;19.42;;;11.70;99.90;;;;;;6226895;22;20066;-93
2023/05/07 02:46:15;;;;;;;23.80;19.67;;;11.60;99.90;;;;;;6227091;22;20003;-95
2023/05/07 02:48:46;;;;;;;25.73;18.35;;;11.70;99.90;;;;;;6227522;22;20018;-92
2023/05/07 02:51:13;;;;;;;23.63;18.73;;;11.70;99.90;;;;;;6245458;22;20007;-94
2023/05/07 02:53:42;;;;;;;24.17;18.70;;;11.80;99.90;;;;;;6227153;22;20056;-92
2023/05/07 02:56:15;;;;;;;22.48;18.27;;;11.90;99.90;;;;;;6226378;22;20452;-92
2023/05/07 02:58:44;;;;;;;24.88;18.02;;;11.90;99.90;;;;;;6251789;22;20429;-94
2023/05/07 03:01:13;;;;;;;22.23;18.40;;;11.90;99.90;;;;;;6226926;22;20003;-92
2023/05/07 03:03:52;;;;;;;20.70;17.80;;;12.00;99.90;;;;;;6229200;22;20022;-92
2023/05/07 03:06:19;;;;;;;22.33;18.33;;;12.10;99.90;;;;;;6226673;22;20011;-91
2023/05/07 03:08:45;;;;;;;23.08;18.52;;;12.10;99.90;;;;;;6226643;22;20333;-91
2023/05/07 03:11:12;;;;;;;31.55;28.67;;;12.00;99.90;;;;;;6251832;22;20010;-92
2023/05/07 03:13:38;;;;;;;26.58;19.92;;;11.90;99.90;;;;;;6226658;22;20030;-90
2023/05/07 03:16:05;;;;;;;21.67;19.25;;;11.80;99.90;;;;;;6251575;22;20008;-92
2023/05/07 03:18:31;;;;;;;25.88;20.70;;;11.80;99.90;;;;;;6226091;22;20015;-91
2023/05/07 03:20:57;;;;;;;21.60;19.40;;;11.70;99.90;;;;;;6251481;22;20004;-92
2023/05/07 03:23:27;;;;;;;22.67;19.17;;;11.70;99.90;;;;;;6226516;22;20014;-91
2023/05/07 03:25:53;;;;;;;24.88;20.10;;;11.60;99.90;;;;;;6226358;22;20090;-94
2023/05/07 03:28:21;;;;;;;22.55;19.27;;;11.50;99.90;;;;;;6227133;22;20334;-92
2023/05/07 03:30:53;;;;;;;26.35;20.58;;;11.50;99.90;;;;;;6227701;22;20008;-91
2023/05/07 03:33:20;;;;;;;23.52;19.77;;;11.30;99.90;;;;;;6251543;22;20031;-91
2023/05/07 03:35:48;;;;;;;26.20;19.55;;;11.40;99.90;;;;;;6226569;22;20008;-93
2023/05/07 03:38:20;;;;;;;24.75;18.80;;;11.40;99.90;;;;;;6251030;22;20008;-95
2023/05/07 03:40:47;;;;;;;22.33;19.30;;;11.50;99.90;;;;;;6251487;22;20019;-93
2023/05/07 03:43:13;;;;;;;21.90;19.45;;;11.50;99.90;;;;;;6225235;22;20012;-92
2023/05/07 03:45:45;;;;;;;23.23;18.58;;;11.50;99.90;;;;;;6250741;22;20008;-90
2023/05/07 03:48:16;;;;;;;25.02;18.45;;;11.60;99.90;;;;;;6251112;22;20429;-92
2023/05/07 03:50:43;;;;;;;25.70;18.30;;;11.70;99.90;;;;;;6226395;22;20077;-93
2023/05/07 03:53:09;;;;;;;20.50;17.60;;;11.80;99.90;;;;;;6225936;22;20065;-93
2023/05/07 03:55:39;;;;;;;21.88;17.83;;;11.80;99.90;;;;;;6226627;22;20015;-91
2023/05/07 03:58:05;;;;;;;18.17;16.38;;;11.90;99.90;;;;;;6225842;22;20003;-94
2023/05/07 04:00:36;;;;;;;19.02;16.65;;;12.00;99.90;;;;;;6226109;22;20003;-93
2023/05/07 04:03:08;;;;;;;22.42;17.52;;;12.10;99.90;;;;;;6251174;22;20352;-92
2023/05/07 04:05:34;;;;;;;26.50;18.35;;;12.20;99.90;;;;;;6251345;22;20095;-92
2023/05/07 04:08:03;;;;;;;25.02;18.75;;;12.30;99.90;;;;;;6226159;22;20303;-92
2023/05/07 04:10:38;;;;;;;23.23;18.90;;;12.40;99.90;;;;;;6251481;22;20007;-92
2023/05/07 04:13:09;;;;;;;21.90;19.13;;;12.50;99.90;;;;;;6251228;22;20011;-94
2023/05/07 04:15:36;;;;;;;25.67;19.58;;;12.60;99.90;;;;;;6226125;22;20012;-92
2023/05/07 04:18:05;;;;;;;21.17;18.52;;;12.70;99.90;;;;;;6225797;22;20088;-91
2023/05/07 04:20:36;;;;;;;21.27;18.98;;;12.80;99.90;;;;;;6251010;22;20004;-93
2023/05/07 04:23:05;;;;;;;21.33;19.08;;;12.90;99.90;;;;;;6251066;22;20015;-92
2023/05/07 04:25:32;;;;;;;20.88;19.00;;;12.90;99.90;;;;;;6226149;22;20012;-94
2023/05/07 04:28:07;;;;;;;21.88;19.52;;;12.90;99.90;;;;;;6227571;22;20003;-93
2023/05/07 04:30:34;;;;;;;21.50;19.50;;;12.90;99.90;;;;;;6251005;22;20038;-92
2023/05/07 04:33:03;;;;;;;22.27;20.20;;;12.90;99.90;;;;;;6226312;22;19999;-91
2023/05/07 04:35:30;;;;;;;23.23;19.42;;;12.80;99.90;;;;;;6226047;22;20065;-92
2023/05/07 04:37:59;;;;;;;22.52;20.15;;;12.80;99.90;;;;;;6200807;22;20469;-92
2023/05/07 04:40:25;;;;;;;23.02;20.77;;;12.90;99.90;;;;;;6250534;22;20392;-91
2023/05/07 04:42:52;;;;;;;25.77;21.23;;;13.10;99.90;;;;;;6224666;22;20034;-92
2023/05/07 04:45:21;;;;;;;24.60;21.83;;;13.30;99.90;;;;;;6250975;22;20014;-93
2023/05/07 04:47:48;;;;;;;25.73;20.88;;;13.60;99.90;;;;;;6225640;22;19999;-92
2023/05/07 04:50:15;;;;;;;22.50;20.35;;;14.00;99.90;;;;;;6251063;22;20012;-92
2023/05/07 04:52:42;;;;;;;22.88;20.67;;;14.50;99.90;;;;;;6226285;22;20000;-92
2023/05/07 04:55:10;;;;;;;23.35;21.38;;;15.10;99.90;;;;;;6225643;22;20356;-92
2023/05/07 04:57:41;;;;;;;23.38;21.48;;;15.90;99.90;;;;;;6226271;22;20010;-96
2023/05/07 05:00:10;;;;;;;23.73;21.45;;;16.90;99.90;;;;;;6250856;22;20012;-91
2023/05/07 05:02:39;;;;;;;24.02;22.13;;;18.10;99.90;;;;;;6226373;22;20004;-93
2023/05/07 05:05:06;;;;;;;27.25;24.95;;;19.40;99.90;;;;;;6250518;22;20015;-93
2023/05/07 05:07:32;;;;;;;28.27;25.95;;;20.30;99.90;;;;;;6225383;22;20008;-93
2023/05/07 05:09:59;;;;;;;29.48;27.08;;;21.10;99.90;;;;;;6225645;22;20004;-93
2023/05/07 05:12:26;;;;;;;30.40;27.92;;;21.60;99.90;;;;;;6225475;22;20398;-92
2023/05/07 05:14:53;;;;;;;31.17;28.60;;;22.20;99.90;;;;;;6225470;22;20007;-95
2023/05/07 05:17:20;;;;;;;32.20;29.42;;;22.50;99.90;;;;;;6224954;22;20080;-94
2023/05/07 05:19:46;;;;;;;31.67;29.27;;;22.90;99.90;;;;;;6225538;22;20011;-91
2023/05/07 05:22:13;;;;;;;32.33;29.65;;;23.40;99.90;;;;;;6225172;22;20011;-93
2023/05/07 05:24:39;;;;;;;31.70;29.40;;;23.50;99.90;;;;;;6225377;22;20450;-93
2023/05/07 05:27:06;;;;;;;32.13;29.67;;;23.70;99.90;;;;;;6225407;22;20088;-93
2023/05/07 05:29:32;;;;;;;32.10;29.70;;;24.00;99.90;;;;;;6225076;22;20027;-92
2023/05/07 05:31:59;;;;;;;32.53;30.23;;;24.60;99.90;;;;;;6225288;22;20008;-93
2023/05/07 05:34:29;;;;;;;32.63;30.23;;;24.70;99.90;;;;;;6225724;22;20003;-93
2023/05/07 05:36:56;;;;;;;31.85;29.55;;;24.70;99.90;;;;;;6225127;22;20506;-93
2023/05/07 05:39:24;;;;;;;32.33;29.90;;;24.80;99.90;;;;;;6225306;22;20078;-93
2023/05/07 05:41:50;;;;;;;31.20;29.00;;;25.30;99.90;;;;;;6225078;22;20011;-93
2023/05/07 05:44:17;;;;;;;32.67;30.02;;;25.10;99.90;;;;;;6250419;22;20015;-92
2023/05/07 05:46:44;;;;;;;32.38;29.98;;;24.90;99.90;;;;;;6225253;22;20004;-95
2023/05/07 05:49:11;;;;;;;32.53;30.13;;;24.70;99.90;;;;;;6225158;22;20011;-95
2023/05/07 05:51:38;;;;;;;33.55;30.88;;;24.70;99.90;;;;;;6225219;22;20003;-94
2023/05/07 05:54:04;;;;;;;32.38;29.88;;;24.60;99.90;;;;;;6225250;22;20015;-92
2023/05/07 05:56:32;;;;;;;33.05;30.65;;;24.80;99.90;;;;;;6225452;22;20004;-92
2023/05/07 05:58:59;;;;;;;32.50;30.08;;;25.20;99.90;;;;;;6225361;22;20034;-93
2023/05/07 06:01:26;;;;;;;31.65;29.50;;;25.70;99.90;;;;;;6226530;22;20378;-93
2023/05/07 06:03:57;;;;;;;31.42;29.20;;;25.80;99.90;;;;;;6227501;22;20026;-92
2023/05/07 06:06:24;;;;;;;31.30;29.25;;;25.90;99.90;;;;;;6227186;22;20007;-91
2023/05/07 06:08:50;;;;;;;30.55;28.65;;;26.30;99.90;;;;;;6228085;22;20437;-95
2023/05/07 06:11:22;;;;;;;32.15;29.35;;;26.40;99.90;;;;;;6230050;22;20109;-93
2023/05/07 06:13:49;;;;;;;31.00;28.70;;;26.40;99.90;;;;;;6227132;22;20062;-93
2023/05/07 06:16:16;;;;;;;32.05;29.75;;;26.40;99.90;;;;;;6226885;22;20004;-93
2023/05/07 06:18:44;;;;;;;32.30;29.95;;;26.40;99.90;;;;;;6226946;22;20016;-92
2023/05/07 06:21:10;;;;;;;31.77;29.27;;;26.30;99.90;;;;;;6227102;22;20003;-94
2023/05/07 06:23:38;;;;;;;33.65;30.75;;;26.20;99.90;;;;;;6226982;22;20015;-93
2023/05/07 06:26:04;;;;;;;32.35;29.85;;;26.30;99.90;;;;;;6226992;22;20003;-94
2023/05/07 06:28:37;;;;;;;32.83;30.33;;;26.40;99.90;;;;;;6228402;22;20011;-93
2023/05/07 06:31:21;;;;;;;32.50;29.95;;;27.00;99.90;;;;;;6227667;22;20031;-95
2023/05/07 06:33:59;;;;;;;33.42;30.65;;;27.70;99.90;;;;;;6229197;22;20004;-92
2023/05/07 06:36:32;;;;;;;32.43;29.93;;;27.50;99.90;;;;;;6228725;22;20066;-95
2023/05/07 06:39:02;;;;;;;31.30;28.98;;;27.10;99.90;;;;;;6227631;22;20004;-93
2023/05/07 06:41:29;;;;;;;29.05;27.17;;;27.30;99.90;;;;;;6227194;22;20318;-94
2023/05/07 06:44:02;;;;;;;29.40;27.45;;;27.30;99.90;;;;;;6227261;22;20015;-93
2023/05/07 06:46:43;;;;;;;30.13;28.13;;;26.80;99.90;;;;;;6229800;22;20000;-94
2023/05/07 06:49:14;;;;;;;30.15;28.05;;;27.40;99.90;;;;;;6227278;22;20008;-93
2023/05/07 06:51:41;;;;;;;29.60;27.70;;;27.00;99.90;;;;;;6227402;22;20385;-94
2023/05/07 06:54:07;;;;;;;29.30;27.42;;;26.70;99.90;;;;;;6226768;22;20433;-93
2023/05/07 06:56:44;;;;;;;29.55;27.65;;;27.00;99.90;;;;;;6227350;22;20338;-96
2023/05/07 06:59:11;;;;;;;;;;;27.60;99.90;;;;;;6229238;22;20433;-94
2023/05/07 07:01:43;;;;;;;29.67;27.77;;;27.60;99.90;;;;;;6231599;22;19906;-94
2023/05/07 10:32:57;;;;;;;29.95;28.02;;;25.60;99.90;;;;;;6270029;22;20895;31
2023/05/07 10:35:32;;;;;;;30.27;28.38;;;25.80;99.90;;;;;;6193232;23;20020;-92
2023/05/07 10:38:01;;;;;;;29.55;27.75;;;26.00;99.90;;;;;;6192656;23;20008;-91
2023/05/07 10:40:31;;;;;;;30.25;28.33;;;25.80;99.90;;;;;;6191841;23;20028;-91
2023/05/07 10:43:00;;;;;;;29.73;27.73;;;25.60;99.90;;;;;;6191532;23;20009;-90
2023/05/07 10:45:30;;;;;;;29.70;27.88;;;25.50;99.90;;;;;;6167609;23;20055;-91
2023/05/07 10:48:11;;;;;;;29.50;27.55;;;25.60;99.90;;;;;;6167100;23;20055;-91
2023/05/07 10:50:43;;;;;;;30.35;27.98;;;25.80;99.90;;;;;;6192316;23;20024;-90
2023/05/07 10:53:16;;;;;;;29.38;27.50;;;26.20;99.90;;;;;;6166768;23;20059;-93
2023/05/07 10:55:54;;;;;;;29.95;27.85;;;26.30;99.90;;;;;;6191958;23;20051;-90
2023/05/07 10:58:42;;;;;;;30.27;28.08;;;26.60;99.90;;;;;;6135732;23;20013;-91
2023/05/07 11:01:49;;;;;;;30.00;28.00;;;26.60;99.90;;;;;;6131497;23;20009;-90
2023/05/07 11:04:24;;;;;;;30.85;28.58;;;26.60;99.90;;;;;;6131154;23;20065;-91
2023/05/07 11:07:12;;;;;;;30.65;28.55;;;26.60;99.90;;;;;;6131213;23;20013;-93
2023/05/07 11:10:01;;;;;;;30.00;28.10;;;26.80;99.90;;;;;;6133524;23;20041;-92
2023/05/07 11:12:54;;;;;;;29.30;27.55;;;26.60;99.90;;;;;;6140669;23;20006;-93
2023/05/07 11:15:37;;;;;;;29.67;27.88;;;26.30;99.90;;;;;;6131222;23;20084;-92
2023/05/07 11:18:12;;;;;;;29.80;27.80;;;25.90;99.90;;;;;;6131294;23;20486;-91
2023/05/07 11:20:51;;;;;;;29.73;27.92;;;25.50;99.90;;;;;;6130966;23;20010;-90
2023/05/07 11:23:37;;;;;;;30.45;28.40;;;25.80;99.90;;;;;;6133806;23;20017;-95
2023/05/07 11:26:19;;;;;;;30.17;28.27;;;25.60;99.90;;;;;;6109399;23;20092;-93
2023/05/07 11:28:50;;;;;;;30.60;28.65;;;25.60;99.90;;;;;;6131118;23;20016;-92
2023/05/07 11:31:25;;;;;;;30.13;28.15;;;25.70;99.90;;;;;;6131316;23;20011;-93
2023/05/07 11:33:54;;;;;;;29.35;27.45;;;25.50;99.90;;;;;;6146488;23;20064;-91
2023/05/07 11:36:23;;;;;;;29.48;27.67;;;25.40;99.90;;;;;;6197508;23;20030;-92
2023/05/07 11:38:52;;;;;;;30.40;28.33;;;25.30;99.90;;;;;;6197134;23;20015;-92
2023/05/07 11:41:22;;;;;;;30.02;27.98;;;25.10;99.90;;;;;;6196395;23;20488;-91
2023/05/07 11:43:58;;;;;;;29.33;27.50;;;25.40;99.90;;;;;;6196122;23;20016;-91
2023/05/07 11:46:25;;;;;;;30.20;28.20;;;25.50;99.90;;;;;;6196294;23;20039;-92
2023/05/07 11:48:52;;;;;;;29.35;27.45;;;25.60;99.90;;;;;;6196231;23;20004;-91
2023/05/07 11:51:25;;;;;;;30.05;28.20;;;25.30;99.90;;;;;;6196506;23;20452;-93
2023/05/07 11:53:52;;;;;;;30.10;28.00;;;25.40;99.90;;;;;;6196097;23;20327;-92
2023/05/07 11:59:17;;;;;;;29.60;27.77;;;25.20;99.90;;;;;;6277291;22;20028;-93
2023/05/07 12:06:16;;;;;;;29.98;28.00;;;25.90;99.90;;;;;;6127259;23;20041;-94
2023/05/07 12:08:49;;;;;;;29.50;27.70;;;25.80;99.90;;;;;;6075903;23;20006;-91
2023/05/07 12:11:59;;;;;;;29.88;27.98;;;25.70;99.90;;;;;;6104501;23;20491;-93
2023/05/07 12:22:59;;;;;;;30.27;28.38;;;26.20;99.90;;;;;;6278372;22;20035;-92
2023/05/07 12:26:44;;;;;;;29.35;27.40;;;26.10;99.90;;;;;;6228038;23;20028;-93
2023/05/07 12:29:15;;;;;;;29.23;27.42;;;25.90;99.90;;;;;;6048972;23;20017;-92
2023/05/07 12:31:44;;;;;;;29.73;27.83;;;25.70;99.90;;;;;;6049128;23;20022;-93
2023/05/07 12:34:12;;;;;;;29.48;27.48;;;25.40;99.90;;;;;;6048483;23;20006;-93
2023/05/07 12:36:40;;;;;;;29.90;27.90;;;25.50;99.90;;;;;;6048649;23;20061;-93
2023/05/07 12:39:11;;;;;;;30.00;28.15;;;25.50;99.90;;;;;;6048662;23;20002;-90
2023/05/07 12:41:56;;;;;;;29.50;27.70;;;25.20;99.90;;;;;;6049931;23;20011;-94
2023/05/07 12:44:29;;;;;;;29.65;27.73;;;25.50;99.90;;;;;;6121257;22;20024;-93
2023/05/07 12:47:00;;;;;;;29.92;27.75;;;25.30;99.90;;;;;;6221210;23;20008;-93
2023/05/07 16:39:40;;;;;;;30.58;28.77;;;23.50;99.90;;;;;;6281945;22;19958;-91
2023/05/07 16:42:06;;;;;;;31.15;29.25;;;23.40;99.90;;;;;;6248839;22;20024;-91
2023/05/07 16:44:33;;;;;;;31.30;29.30;;;23.40;99.90;;;;;;6225756;22;20016;-93
2023/05/07 16:47:00;;;;;;;30.70;28.55;;;23.20;99.90;;;;;;6225979;22;20008;-93
2023/05/07 16:49:30;;;;;;;30.67;28.77;;;23.20;99.90;;;;;;6225871;22;20010;-92
2023/05/07 16:51:56;;;;;;;30.52;28.48;;;23.20;99.90;;;;;;6226116;22;20003;-90
2023/05/07 16:54:23;;;;;;;30.63;28.63;;;23.00;99.90;;;;;;6225912;22;20027;-93
2023/05/07 16:56:49;;;;;;;31.17;29.00;;;22.90;99.90;;;;;;6226566;22;20004;-94
2023/05/07 16:59:16;;;;;;;29.85;27.95;;;22.80;99.90;;;;;;6227760;22;20008;-92
2023/05/07 17:01:43;;;;;;;29.80;27.75;;;22.70;99.90;;;;;;6226068;22;20004;-92
2023/05/07 17:04:09;;;;;;;30.25;28.15;;;22.60;99.90;;;;;;6225966;22;20043;-91
2023/05/07 17:06:36;;;;;;;28.35;26.75;;;22.50;99.90;;;;;;6225873;22;20077;-94
2023/05/07 17:09:02;;;;;;;29.23;27.42;;;22.40;99.90;;;;;;6225747;22;20004;-91
2023/05/07 17:11:33;;;;;;;28.83;26.98;;;22.30;99.90;;;;;;6225366;22;20030;-91
2023/05/07 17:14:00;;;;;;;28.33;26.63;;;22.30;99.90;;;;;;6225506;22;20008;-92
2023/05/07 17:16:27;;;;;;;28.05;26.35;;;22.20;99.90;;;;;;6225690;22;20090;-91
2023/05/07 17:18:53;;;;;;;28.40;26.60;;;22.10;99.90;;;;;;6226050;22;20008;-91
2023/05/07 17:21:20;;;;;;;27.80;26.00;;;22.00;99.90;;;;;;6225950;22;20011;-92
2023/05/07 17:23:49;;;;;;;27.98;25.98;;;22.00;99.90;;;;;;6225614;22;20026;-92
2023/05/07 17:26:20;;;;;;;26.65;25.05;;;21.80;99.90;;;;;;6225308;22;20000;-93
2023/05/07 17:28:46;;;;;;;26.73;24.85;;;21.80;99.90;;;;;;6250697;22;20012;-92
2023/05/07 17:31:13;;;;;;;26.40;24.80;;;21.70;99.90;;;;;;6226436;22;20086;-93
2023/05/07 17:33:39;;;;;;;26.58;24.70;;;21.60;99.90;;;;;;6227783;22;20006;-92
2023/05/07 17:36:07;;;;;;;26.42;24.70;;;21.50;99.90;;;;;;6225589;22;20110;-91
2023/05/07 17:38:34;;;;;;;26.85;25.13;;;21.40;99.90;;;;;;6225417;22;20311;-93
2023/05/07 17:41:01;;;;;;;27.00;25.20;;;21.30;99.90;;;;;;6225159;22;20016;-93
2023/05/07 17:43:27;;;;;;;26.90;25.08;;;21.20;99.90;;;;;;6225666;22;20035;-92
2023/05/07 17:45:55;;;;;;;27.50;25.38;;;21.10;99.90;;;;;;6225565;22;20058;-93
2023/05/07 17:48:23;;;;;;;26.73;24.95;;;21.00;99.90;;;;;;6225940;22;20010;-94
2023/05/07 17:50:50;;;;;;;26.23;24.40;;;20.90;99.90;;;;;;6225542;22;20318;-92
2023/05/07 17:53:16;;;;;;;24.80;23.10;;;20.80;99.90;;;;;;6225616;22;20015;-91
2023/05/07 17:55:49;;;;;;;25.00;23.35;;;20.70;99.90;;;;;;6225555;22;20333;-92
2023/05/07 17:58:19;;;;;;;24.30;22.80;;;20.60;99.90;;;;;;6227387;22;20368;-91
2023/05/07 18:00:45;;;;;;;24.77;23.15;;;20.40;99.90;;;;;;6227696;22;20061;-91
2023/05/07 18:03:11;;;;;;;24.85;23.25;;;20.30;99.90;;;;;;6227383;22;20034;-93
2023/05/07 18:05:41;;;;;;;24.50;22.92;;;20.30;99.90;;;;;;6227150;22;20041;-91
2023/05/07 18:08:08;;;;;;;23.48;21.90;;;20.20;99.90;;;;;;6227444;22;20086;-90
2023/05/07 18:10:34;;;;;;;23.85;22.35;;;20.10;99.90;;;;;;6227915;22;20065;-90
2023/05/07 18:13:02;;;;;;;23.10;21.55;;;20.00;99.90;;;;;;6227313;22;20026;-91
2023/05/07 18:15:32;;;;;;;23.45;21.75;;;20.00;99.90;;;;;;6226970;22;20433;-90
2023/05/07 18:17:58;;;;;;;23.42;21.83;;;19.90;99.90;;;;;;6227525;22;20004;-92
2023/05/07 18:20:25;;;;;;;23.38;21.60;;;19.80;99.90;;;;;;6227072;22;20012;-91
2023/05/07 18:22:51;;;;;;;22.48;21.02;;;19.80;99.90;;;;;;6227081;22;20077;-90
2023/05/07 18:25:18;;;;;;;23.35;21.75;;;19.50;99.90;;;;;;6227315;22;20104;-92
2023/05/07 18:27:44;;;;;;;24.13;22.02;;;19.20;99.90;;;;;;6227292;22;20000;-91
2023/05/07 18:30:11;;;;;;;23.85;22.05;;;19.00;99.90;;;;;;6227395;22;20011;-91
2023/05/07 18:32:37;;;;;;;23.88;22.08;;;18.90;99.90;;;;;;6227215;22;20322;-92
2023/05/07 18:35:04;;;;;;;23.08;21.48;;;18.70;99.90;;;;;;6227311;22;20460;-92
2023/05/07 18:37:31;;;;;;;24.55;22.33;;;18.60;99.90;;;;;;6227157;22;20004;-91
2023/05/07 18:40:00;;;;;;;24.42;22.30;;;18.60;99.90;;;;;;6226806;22;20012;-91
2023/05/07 18:42:27;;;;;;;24.27;22.35;;;18.60;99.90;;;;;;6226967;22;20023;-90
2023/05/07 18:44:54;;;;;;;25.58;22.92;;;18.50;99.90;;;;;;6227412;22;20015;-91
2023/05/07 18:47:20;;;;;;;25.80;23.60;;;18.40;99.90;;;;;;6226601;22;20008;-91
2023/05/07 18:49:47;;;;;;;23.95;22.25;;;18.30;99.90;;;;;;6227003;22;20117;-92
2023/05/07 18:52:49;;;;;;;24.98;23.08;;;18.20;99.90;;;;;;6229897;22;20004;-92
2023/05/07 18:55:16;;;;;;;25.08;23.02;;;18.10;99.90;;;;;;6216566;22;20020;-92
2023/05/07 18:57:45;;;;;;;25.88;23.45;;;17.90;99.90;;;;;;6234807;22;20008;-93
2023/05/07 19:00:38;;;;;;;25.73;23.52;;;17.80;99.90;;;;;;6198353;23;20008;-94
2023/05/07 19:10:55;;;;;;;25.83;23.63;;;17.50;99.90;;;;;;6257353;22;20091;-94
2023/05/07 19:13:30;;;;;;;25.88;23.52;;;17.40;99.90;;;;;;6229536;22;20004;-94
2023/05/07 19:15:59;;;;;;;25.27;23.27;;;17.30;99.90;;;;;;6225714;22;20494;-91
2023/05/07 19:18:55;;;;;;;25.48;23.15;;;17.30;99.90;;;;;;6227296;22;20054;-94
2023/05/07 19:21:27;;;;;;;25.02;23.08;;;17.20;99.90;;;;;;6226610;22;20089;-94
2023/05/07 19:24:02;;;;;;;24.83;22.95;;;17.20;99.90;;;;;;6227902;22;20074;-92
2023/05/07 19:26:29;;;;;;;25.45;23.17;;;17.10;99.90;;;;;;6227686;22;20082;-94
2023/05/07 19:28:55;;;;;;;25.40;23.27;;;17.10;99.90;;;;;;6226973;22;20000;-91
2023/05/07 19:31:29;;;;;;;25.05;23.05;;;17.00;99.90;;;;;;6226496;22;20011;-92
2023/05/07 19:33:56;;;;;;;25.63;23.00;;;16.90;99.90;;;;;;6226472;22;20095;-93
2023/05/07 19:36:22;;;;;;;25.33;22.77;;;16.80;99.90;;;;;;6224699;22;20238;-92
2023/05/07 19:38:54;;;;;;;25.02;22.90;;;16.80;99.90;;;;;;6227917;22;20004;-95
2023/05/07 19:41:35;;;;;;;24.85;22.77;;;16.70;99.90;;;;;;6226661;22;20011;-91
2023/05/07 20:39:42;;;;;;;22.00;19.88;;;15.70;99.90;;;;;;6273404;22;20149;-93
2023/05/07 21:50:12;;;;;;;22.65;19.67;;;14.70;99.90;;;;;;6260671;22;20016;-92
2023/05/07 21:52:41;;;;;;;22.38;20.02;;;14.60;99.90;;;;;;6229424;22;20090;-94
2023/05/07 21:55:13;;;;;;;23.00;19.90;;;14.60;99.90;;;;;;6230350;22;20008;-95
2023/05/07 21:57:43;;;;;;;22.23;19.92;;;14.50;99.90;;;;;;6231205;22;20015;-95
2023/05/07 22:00:11;;;;;;;23.05;19.77;;;14.50;99.90;;;;;;6230265;22;20072;-95
2023/05/07 22:02:42;;;;;;;26.30;20.45;;;14.40;99.90;;;;;;6231405;22;20003;-95
2023/05/07 22:05:15;;;;;;;23.33;19.33;;;14.40;99.90;;;;;;6230223;22;20043;-95
2023/05/07 22:07:42;;;;;;;32.55;21.13;;;14.40;99.90;;;;;;6229042;22;20003;-94
2023/05/07 22:10:08;;;;;;;23.67;19.73;;;14.40;99.90;;;;;;6228726;22;20003;-92
